Flight Track Log - Related Links

Times and Time Zones

All times are in EDT time to prevent confusion due to time zone crossing. See the CTL16 flight status page for this flight to view local times or setup timezone preferences in your user account.

Time Position Orientation Groundspeed Altitude Reporting Facility
EDT Latitude Longitude Course Direction KTS MPH feet Rate Location/Type
Tue 08:29:30 PM 39.4167 -84.4333 60° Northeast 160 184 1,700  Level Cincinnati TRACON
Tue 08:31:09 PM 39.4558 -84.3453 60° Northeast 183 211 1,900 331 Climbing Indianapolis Center
Tue 08:31:55 PM 39.4800 -84.3161 43° Northeast 157 181 2,500 871 Climbing Indianapolis Center
Tue 08:32:11 PM 39.4875 -84.3056 47° Northeast 161 185 2,800 692 Climbing Indianapolis Center
Tue 08:33:13 PM 39.5139 -84.2739 43° Northeast 141 162 3,400 623 Climbing Indianapolis Center
Tue 08:33:57 PM 39.5358 -84.2450 45° Northeast 137 158 3,900 677 Climbing Indianapolis Center
Tue 08:34:15 PM 39.5411 -84.2375 48° Northeast 138 159 4,100 759 Climbing Indianapolis Center
Tue 08:35:16 PM 39.5683 -84.2036 44° Northeast 136 157 4,900 843 Climbing Indianapolis Center
Tue 08:36:16 PM 39.5944 -84.1686 46° Northeast 120 138 5,800 793 Climbing Indianapolis Center
Tue 08:37:17 PM 39.6175 -84.1392 45° Northeast 119 137 6,500 680 Climbing Indianapolis Center
Tue 08:37:53 PM 39.6336 -84.1225 39° Northeast 119 137 6,900 469 Climbing Indianapolis Center
Tue 08:38:21 PM 39.6456 -84.1064 46° Northeast 121 139 7,000 81 Climbing Indianapolis Center
Tue 08:39:07 PM 39.6683 -84.0781 44° Northeast 151 174 7,000 97 Level Indianapolis Center
Tue 08:39:23 PM 39.6756 -84.0675 48° Northeast 142 163 7,100  Climbing Indianapolis Center
Tue 08:40:01 PM 39.6964 -84.0439 41° Northeast 156 180 7,000 -97 Descending Indianapolis Center
Tue 08:40:25 PM 39.7069 -84.0300 45° Northeast 151 174 7,000  Level Indianapolis Center
Tue 08:40:56 PM 39.7242 -84.0067 46° Northeast 158 182 7,000  Level Indianapolis Center
Tue 08:41:26 PM 39.7383 -83.9889 44° Northeast 155 178 7,000  Level Indianapolis Center
Tue 08:42:03 PM 39.7589 -83.9650 42° Northeast 156 180 7,000  Level Indianapolis Center
Tue 08:42:28 PM 39.7703 -83.9492 47° Northeast 156 180 7,000  Level Indianapolis Center
Tue 08:42:57 PM 39.7867 -83.9306 41° Northeast 156 180 7,000  Level Indianapolis Center
Tue 08:43:30 PM 39.8017 -83.9100 46° Northeast 156 180 7,000  Level Indianapolis Center
Tue 08:44:16 PM 39.8264 -83.8786 44° Northeast 157 181 7,000  Level Indianapolis Center
Tue 08:44:31 PM 39.8328 -83.8700 46° Northeast 155 178 7,000  Level Indianapolis Center
Tue 08:45:23 PM 39.8633 -83.8317 44° Northeast 156 180 7,000  Level Indianapolis Center
Tue 08:46:34 PM 39.8953 -83.7906 45° Northeast 155 178 7,000 62 Level Indianapolis Center
Tue 08:47:00 PM 39.9119 -83.7700 43° Northeast 154 177 7,100 97 Climbing Indianapolis Center
Tue 08:47:36 PM 39.9253 -83.7494 50° Northeast 155 178 7,100 -71 Level Indianapolis Center
Tue 08:48:25 PM 39.9539 -83.7128 44° Northeast 154 177 7,000 -61 Descending Indianapolis Center
Tue 08:49:14 PM 39.9794 -83.6806 44° Northeast 154 177 7,000 81 Level Indianapolis Center
Tue 08:49:39 PM 39.9861 -83.6692 53° Northeast 153 176 7,100  Climbing Indianapolis Center
Tue 08:50:21 PM 40.0119 -83.6383 42° Northeast 153 176 7,000 -97 Descending Indianapolis Center
Tue 08:50:41 PM 40.0181 -83.6308 43° Northeast 154 177 7,000  Level Indianapolis Center
Tue 08:51:21 PM 40.0419 -83.5983 46° Northeast 153 176 7,000  Level Indianapolis Center
Tue 08:51:42 PM 40.0533 -83.5850 42° Northeast 152 175 7,000 -122 Level Indianapolis Center
Tue 08:52:10 PM 40.0672 -83.5689 42° Northeast 153 176 6,900 -97 Descending Indianapolis Center
Tue 08:52:44 PM 40.0842 -83.5461 46° Northeast 152 175 6,900 98 Level Indianapolis Center
Tue 08:53:11 PM 40.0975 -83.5289 45° Northeast 150 173 7,000  Climbing Indianapolis Center
Tue 08:53:45 PM 40.1153 -83.5083 41° Northeast 151 174 6,900  Descending Indianapolis Center
Tue 08:54:18 PM 40.1339 -83.4869 41° Northeast 152 175 7,000 98 Climbing Indianapolis Center
Tue 08:54:46 PM 40.1467 -83.4700 45° Northeast 152 175 7,000  Level Indianapolis Center
Tue 08:55:19 PM 40.1639 -83.4497 42° Northeast 153 176 7,000  Level Indianapolis Center
Tue 08:55:48 PM 40.1778 -83.4303 47° Northeast 154 177 7,000  Level Indianapolis Center
Tue 08:56:19 PM 40.1939 -83.4097 44° Northeast 153 176 7,000  Level Indianapolis Center
Tue 08:56:49 PM 40.2094 -83.3914 42° Northeast 154 177 7,000  Level Indianapolis Center
Tue 08:57:20 PM 40.2261 -83.3700 44° Northeast 154 177 7,000  Level Indianapolis Center
Tue 08:57:51 PM 40.2392 -83.3508 48° Northeast 154 177 7,000  Level Indianapolis Center
Tue 08:58:21 PM 40.2583 -83.3303 39° Northeast 158 182 7,000  Level Indianapolis Center
Tue 08:58:52 PM 40.2722 -83.3114 46° Northeast 158 182 7,000 -98 Level Indianapolis Center
Tue 08:59:22 PM 40.2883 -83.2900 45° Northeast 156 180 6,900 -98 Descending Indianapolis Center
Tue 08:59:53 PM 40.3033 -83.2719 43° Northeast 155 178 6,900  Level Indianapolis Center
Tue 09:00:17 PM 40.3178 -83.2553 41° Northeast 156 180 6,900 97 Level Indianapolis Center
Tue 09:00:55 PM 40.3353 -83.2333 44° Northeast 155 178 7,000  Climbing Indianapolis Center
Tue 09:01:56 PM 40.3653 -83.1928 46° Northeast 153 176 6,900  Descending Indianapolis Center
Tue 09:02:58 PM 40.3950 -83.1528 46° Northeast 152 175 7,000 49 Climbing Indianapolis Center
Tue 09:03:59 PM 40.4258 -83.1147 43° Northeast 149 171 7,000  Level Indianapolis Center
Tue 09:05:00 PM 40.4556 -83.0750 45° Northeast 150 173 7,000  Level Indianapolis Center
Tue 09:06:02 PM 40.4847 -83.0353 46° Northeast 150 173 7,000  Level Indianapolis Center
Tue 09:07:03 PM 40.5175 -82.9950 43° Northeast 151 174 7,000  Level Indianapolis Center
Tue 09:08:04 PM 40.5472 -82.9544 46° Northeast 152 175 7,000  Level Indianapolis Center
Tue 09:09:06 PM 40.5783 -82.9142 45° Northeast 155 178 7,000  Level Indianapolis Center
Tue 09:10:07 PM 40.6081 -82.8728 47° Northeast 155 178 7,000  Level Indianapolis Center
Tue 09:11:08 PM 40.6383 -82.8317 46° Northeast 155 178 7,000  Level Indianapolis Center
Tue 09:12:10 PM 40.6744 -82.7844 45° Northeast 156 180 7,000 -195 Level Indianapolis Center
Tue 09:13:11 PM 40.7067 -82.7444 43° Northeast 157 181 6,600 -492 Descending Indianapolis Center
Tue 09:14:12 PM 40.7417 -82.6997 44° Northeast 170 196 6,000 -590 Descending Indianapolis Center

Login

Don't have an account? Register now (free) for customized features, flight alerts, and more!